sensor_id;sensor_type;location;lat;lon;timestamp;pressure;altitude;pressure_sealevel;temperature;humidity
63552;BME280;49698;48.072;7.800;2023-01-28T00:01:45;99954.22;;;0.47;78.23
63552;BME280;49698;48.072;7.800;2023-01-28T00:04:13;99949.75;;;0.48;77.92
63552;BME280;49698;48.072;7.800;2023-01-28T00:06:41;99958.50;;;0.48;78.22
63552;BME280;49698;48.072;7.800;2023-01-28T00:09:09;99956.66;;;0.49;78.34
63552;BME280;49698;48.072;7.800;2023-01-28T00:11:37;99954.63;;;0.51;78.12
63552;BME280;49698;48.072;7.800;2023-01-28T00:14:09;99956.25;;;0.52;77.92
63552;BME280;49698;48.072;7.800;2023-01-28T00:16:37;99954.41;;;0.53;78.26
63552;BME280;49698;48.072;7.800;2023-01-28T00:19:06;99949.34;;;0.51;78.11
63552;BME280;49698;48.072;7.800;2023-01-28T00:21:34;99953.00;;;0.50;78.38
63552;BME280;49698;48.072;7.800;2023-01-28T00:24:02;99947.69;;;0.50;78.53
63552;BME280;49698;48.072;7.800;2023-01-28T00:26:30;99948.72;;;0.49;78.67
63552;BME280;49698;48.072;7.800;2023-01-28T00:28:58;99946.88;;;0.49;78.46
63552;BME280;49698;48.072;7.800;2023-01-28T00:31:27;99946.06;;;0.49;78.44
63552;BME280;49698;48.072;7.800;2023-01-28T00:33:56;99949.34;;;0.51;78.61
63552;BME280;49698;48.072;7.800;2023-01-28T00:36:25;99949.34;;;0.51;78.73
63552;BME280;49698;48.072;7.800;2023-01-28T00:38:55;99944.88;;;0.52;78.62
63552;BME280;49698;48.072;7.800;2023-01-28T00:41:25;99948.72;;;0.49;78.95
63552;BME280;49698;48.072;7.800;2023-01-28T00:43:54;99948.72;;;0.49;78.80
63552;BME280;49698;48.072;7.800;2023-01-28T00:46:22;99944.47;;;0.48;79.12
63552;BME280;49698;48.072;7.800;2023-01-28T00:48:52;99953.41;;;0.47;78.90
63552;BME280;49698;48.072;7.800;2023-01-28T00:51:20;99944.84;;;0.45;79.25
63552;BME280;49698;48.072;7.800;2023-01-28T00:53:49;99951.16;;;0.44;79.78
63552;BME280;49698;48.072;7.800;2023-01-28T00:56:17;99949.75;;;0.41;79.69
63552;BME280;49698;48.072;7.800;2023-01-28T00:58:45;99948.94;;;0.41;80.08
63552;BME280;49698;48.072;7.800;2023-01-28T01:01:16;99942.03;;;0.40;79.92
63552;BME280;49698;48.072;7.800;2023-01-28T01:03:44;99954.22;;;0.41;80.10
63552;BME280;49698;48.072;7.800;2023-01-28T01:06:14;99943.63;;;0.41;80.19
63552;BME280;49698;48.072;7.800;2023-01-28T01:08:42;99945.25;;;0.42;80.09
63552;BME280;49698;48.072;7.800;2023-01-28T01:11:16;99947.91;;;0.42;80.31
63552;BME280;49698;48.072;7.800;2023-01-28T01:13:49;99942.63;;;0.42;80.13
63552;BME280;49698;48.072;7.800;2023-01-28T01:16:17;99944.25;;;0.43;80.34
63552;BME280;49698;48.072;7.800;2023-01-28T01:18:47;99940.78;;;0.42;80.34
63552;BME280;49698;48.072;7.800;2023-01-28T01:21:20;99941.63;;;0.43;80.26
63552;BME280;49698;48.072;7.800;2023-01-28T01:23:50;99943.63;;;0.41;80.53
63552;BME280;49698;48.072;7.800;2023-01-28T01:26:18;99943.63;;;0.41;80.33
63552;BME280;49698;48.072;7.800;2023-01-28T01:28:47;99941.81;;;0.41;80.62
63552;BME280;49698;48.072;7.800;2023-01-28T01:31:16;99941.81;;;0.41;80.67
63552;BME280;49698;48.072;7.800;2023-01-28T01:33:46;99943.63;;;0.41;80.29
63552;BME280;49698;48.072;7.800;2023-01-28T01:36:16;99948.94;;;0.41;80.52
63552;BME280;49698;48.072;7.800;2023-01-28T01:38:47;99940.78;;;0.42;80.59
63552;BME280;49698;48.072;7.800;2023-01-28T01:41:23;99945.88;;;0.44;80.40
63552;BME280;49698;48.072;7.800;2023-01-28T01:43:54;99944.84;;;0.45;80.63
63552;BME280;49698;48.072;7.800;2023-01-28T01:46:26;99939.97;;;0.48;80.59
63552;BME280;49698;48.072;7.800;2023-01-28T01:49:05;99945.06;;;0.50;80.52
63552;BME280;49698;48.072;7.800;2023-01-28T01:51:35;99941.41;;;0.51;80.36
63552;BME280;49698;48.072;7.800;2023-01-28T01:54:05;99945.69;;;0.52;80.43
63552;BME280;49698;48.072;7.800;2023-01-28T01:56:37;99950.75;;;0.54;80.36
63552;BME280;49698;48.072;7.800;2023-01-28T01:59:11;99951.56;;;0.54;80.04
63552;BME280;49698;48.072;7.800;2023-01-28T02:01:40;99950.34;;;0.57;80.14
63552;BME280;49698;48.072;7.800;2023-01-28T02:04:16;99947.53;;;0.58;80.00
63552;BME280;49698;48.072;7.800;2023-01-28T02:06:46;99947.53;;;0.58;80.16
63552;BME280;49698;48.072;7.800;2023-01-28T02:09:24;99940.41;;;0.59;80.05
63552;BME280;49698;48.072;7.800;2023-01-28T02:11:54;99945.69;;;0.59;80.14
63552;BME280;49698;48.072;7.800;2023-01-28T02:14:25;99941.81;;;0.61;79.88
63552;BME280;49698;48.072;7.800;2023-01-28T02:16:58;99945.25;;;0.62;79.64
63552;BME280;49698;48.072;7.800;2023-01-28T02:19:30;99938.97;;;0.63;79.61
63552;BME280;49698;48.072;7.800;2023-01-28T02:22:21;99943.84;;;0.66;79.75
63552;BME280;49698;48.072;7.800;2023-01-28T02:25:12;99945.25;;;0.68;79.54
63552;BME280;49698;48.072;7.800;2023-01-28T02:28:08;99950.97;;;0.72;79.27
63552;BME280;49698;48.072;7.800;2023-01-28T02:30:43;99945.25;;;0.75;79.09
63552;BME280;49698;48.072;7.800;2023-01-28T02:33:18;99939.75;;;0.77;79.14
63552;BME280;49698;48.072;7.800;2023-01-28T02:35:51;99945.66;;;0.79;79.16
63552;BME280;49698;48.072;7.800;2023-01-28T02:38:24;99938.31;;;0.81;78.77
63552;BME280;49698;48.072;7.800;2023-01-28T02:40:58;99944.84;;;0.78;78.96
63552;BME280;49698;48.072;7.800;2023-01-28T02:43:36;99957.28;;;0.78;79.03
63552;BME280;49698;48.072;7.800;2023-01-28T02:46:16;99952.16;;;0.76;79.09
63552;BME280;49698;48.072;7.800;2023-01-28T02:49:04;99952.38;;;0.75;79.36
63552;BME280;49698;48.072;7.800;2023-01-28T02:51:44;99954.41;;;0.72;79.38
63552;BME280;49698;48.072;7.800;2023-01-28T02:54:23;99953.81;;;0.70;79.26
63552;BME280;49698;48.072;7.800;2023-01-28T02:56:59;99956.47;;;0.70;79.57
63552;BME280;49698;48.072;7.800;2023-01-28T02:59:39;99955.03;;;0.68;79.37
63552;BME280;49698;48.072;7.800;2023-01-28T03:02:14;99952.59;;;0.66;79.92
63552;BME280;49698;48.072;7.800;2023-01-28T03:04:48;99959.50;;;0.67;79.95
63552;BME280;49698;48.072;7.800;2023-01-28T03:07:22;99953.59;;;0.65;80.03
63552;BME280;49698;48.072;7.800;2023-01-28T03:09:53;99966.81;;;0.65;80.09
63552;BME280;49698;48.072;7.800;2023-01-28T03:12:26;99955.44;;;0.65;79.98
63552;BME280;49698;48.072;7.800;2023-01-28T03:15:16;99959.91;;;0.64;80.17
63552;BME280;49698;48.072;7.800;2023-01-28T03:18:03;99961.97;;;0.62;79.98
63552;BME280;49698;48.072;7.800;2023-01-28T03:20:55;99957.06;;;0.59;80.16
63552;BME280;49698;48.072;7.800;2023-01-28T03:23:47;99957.88;;;0.60;80.31
63552;BME280;49698;48.072;7.800;2023-01-28T03:26:41;99958.91;;;0.59;80.42
63552;BME280;49698;48.072;7.800;2023-01-28T03:29:30;99966.84;;;0.59;80.51
63552;BME280;49698;48.072;7.800;2023-01-28T03:32:21;99967.03;;;0.57;80.70
63552;BME280;49698;48.072;7.800;2023-01-28T03:35:09;99967.03;;;0.57;80.76
63552;BME280;49698;48.072;7.800;2023-01-28T03:37:56;99968.06;;;0.56;80.83
63552;BME280;49698;48.072;7.800;2023-01-28T03:40:27;99971.72;;;0.55;81.13
63552;BME280;49698;48.072;7.800;2023-01-28T03:42:55;99971.72;;;0.55;81.08
63552;BME280;49698;48.072;7.800;2023-01-28T03:45:32;99965.41;;;0.56;81.12
63552;BME280;49698;48.072;7.800;2023-01-28T03:48:04;99969.69;;;0.57;81.04
63552;BME280;49698;48.072;7.800;2023-01-28T03:50:32;99976.63;;;0.58;81.41
63552;BME280;49698;48.072;7.800;2023-01-28T03:53:01;99970.31;;;0.59;81.08
63552;BME280;49698;48.072;7.800;2023-01-28T03:55:47;99969.28;;;0.60;81.00
63552;BME280;49698;48.072;7.800;2023-01-28T03:58:17;99975.38;;;0.61;81.00
63552;BME280;49698;48.072;7.800;2023-01-28T04:00:45;99973.34;;;0.63;80.86
63552;BME280;49698;48.072;7.800;2023-01-28T04:03:16;99979.25;;;0.65;80.90
63552;BME280;49698;48.072;7.800;2023-01-28T04:05:59;99977.41;;;0.65;80.86
63552;BME280;49698;48.072;7.800;2023-01-28T04:08:46;99980.69;;;0.67;80.77
63552;BME280;49698;48.072;7.800;2023-01-28T04:11:31;99983.31;;;0.67;80.57
63552;BME280;49698;48.072;7.800;2023-01-28T04:14:04;99979.06;;;0.66;80.50
63552;BME280;49698;48.072;7.800;2023-01-28T04:17:01;99991.25;;;0.67;80.49
63552;BME280;49698;48.072;7.800;2023-01-28T04:19:30;99980.69;;;0.67;80.69
63552;BME280;49698;48.072;7.800;2023-01-28T04:22:04;99981.50;;;0.68;80.50
63552;BME280;49698;48.072;7.800;2023-01-28T04:24:33;99985.16;;;0.67;80.29
63552;BME280;49698;48.072;7.800;2023-01-28T04:27:01;99988.63;;;0.67;80.21
63552;BME280;49698;48.072;7.800;2023-01-28T04:29:29;99995.53;;;0.68;80.34
63552;BME280;49698;48.072;7.800;2023-01-28T04:32:09;99989.22;;;0.69;80.19
63552;BME280;49698;48.072;7.800;2023-01-28T04:34:57;99998.59;;;0.72;80.12
63552;BME280;49698;48.072;7.800;2023-01-28T04:37:37;99998.59;;;0.72;80.06
63552;BME280;49698;48.072;7.800;2023-01-28T04:40:15;99994.09;;;0.72;80.04
63552;BME280;49698;48.072;7.800;2023-01-28T04:42:55;100001.84;;;0.74;79.86
63552;BME280;49698;48.072;7.800;2023-01-28T04:45:31;99995.72;;;0.73;79.80
63552;BME280;49698;48.072;7.800;2023-01-28T04:48:22;99992.09;;;0.75;79.71
63552;BME280;49698;48.072;7.800;2023-01-28T04:51:04;99999.00;;;0.76;79.88
63552;BME280;49698;48.072;7.800;2023-01-28T04:53:37;100007.56;;;0.78;79.68
63552;BME280;49698;48.072;7.800;2023-01-28T04:56:23;100010.19;;;0.78;79.61
63552;BME280;49698;48.072;7.800;2023-01-28T04:58:51;100010.19;;;0.78;79.52
63552;BME280;49698;48.072;7.800;2023-01-28T05:01:19;100010.19;;;0.78;79.72
63552;BME280;49698;48.072;7.800;2023-01-28T05:03:47;100009.19;;;0.79;79.44
63552;BME280;49698;48.072;7.800;2023-01-28T05:06:23;100002.25;;;0.78;79.46
63552;BME280;49698;48.072;7.800;2023-01-28T05:08:55;100007.34;;;0.79;79.36
63552;BME280;49698;48.072;7.800;2023-01-28T05:11:24;100006.53;;;0.79;79.25
63552;BME280;49698;48.072;7.800;2023-01-28T05:13:57;100009.34;;;0.77;79.63
63552;BME280;49698;48.072;7.800;2023-01-28T05:16:31;100008.56;;;0.77;79.47
63552;BME280;49698;48.072;7.800;2023-01-28T05:19:02;100011.41;;;0.75;79.52
63552;BME280;49698;48.072;7.800;2023-01-28T05:21:38;100014.25;;;0.73;79.64
63552;BME280;49698;48.072;7.800;2023-01-28T05:24:14;100020.56;;;0.72;79.71
63552;BME280;49698;48.072;7.800;2023-01-28T05:26:43;100026.25;;;0.69;79.75
63552;BME280;49698;48.072;7.800;2023-01-28T05:29:11;100027.91;;;0.70;79.98
63552;BME280;49698;48.072;7.800;2023-01-28T05:31:39;100024.63;;;0.68;79.94
63552;BME280;49698;48.072;7.800;2023-01-28T05:34:08;100032.56;;;0.68;80.05
63552;BME280;49698;48.072;7.800;2023-01-28T05:36:36;100018.53;;;0.68;79.96
63552;BME280;49698;48.072;7.800;2023-01-28T05:39:23;100028.09;;;0.69;79.99
63552;BME280;49698;48.072;7.800;2023-01-28T05:41:51;100035.22;;;0.68;80.00
63552;BME280;49698;48.072;7.800;2023-01-28T05:44:19;100025.44;;;0.69;79.99
63552;BME280;49698;48.072;7.800;2023-01-28T05:47:06;100031.53;;;0.69;79.89
63552;BME280;49698;48.072;7.800;2023-01-28T05:49:43;100029.75;;;0.70;80.21
63552;BME280;49698;48.072;7.800;2023-01-28T05:52:30;100035.84;;;0.70;80.03
63552;BME280;49698;48.072;7.800;2023-01-28T05:55:00;100036.84;;;0.69;80.13
63552;BME280;49698;48.072;7.800;2023-01-28T05:57:28;100037.47;;;0.71;79.94
63552;BME280;49698;48.072;7.800;2023-01-28T05:59:56;100036.44;;;0.72;79.76
63552;BME280;49698;48.072;7.800;2023-01-28T06:02:25;100032.75;;;0.73;79.95
63552;BME280;49698;48.072;7.800;2023-01-28T06:04:56;100038.06;;;0.73;79.82
63552;BME280;49698;48.072;7.800;2023-01-28T06:07:24;100042.34;;;0.75;79.80
63552;BME280;49698;48.072;7.800;2023-01-28T06:09:52;100038.69;;;0.76;79.54
63552;BME280;49698;48.072;7.800;2023-01-28T06:12:22;100040.94;;;0.79;79.46
63552;BME280;49698;48.072;7.800;2023-01-28T06:15:13;100040.53;;;0.82;79.24
63552;BME280;49698;48.072;7.800;2023-01-28T06:17:58;100039.50;;;0.83;78.74
63552;BME280;49698;48.072;7.800;2023-01-28T06:20:32;100036.47;;;0.86;78.64
63552;BME280;49698;48.072;7.800;2023-01-28T06:23:00;100045.00;;;0.88;78.48
63552;BME280;49698;48.072;7.800;2023-01-28T06:25:28;100048.25;;;0.90;78.05
63552;BME280;49698;48.072;7.800;2023-01-28T06:28:03;100056.00;;;0.91;78.03
63552;BME280;49698;48.072;7.800;2023-01-28T06:30:31;100058.41;;;0.93;77.95
63552;BME280;49698;48.072;7.800;2023-01-28T06:32:59;100065.38;;;0.94;77.86
63552;BME280;49698;48.072;7.800;2023-01-28T06:35:27;100068.59;;;0.96;77.64
63552;BME280;49698;48.072;7.800;2023-01-28T06:37:55;100064.13;;;0.96;77.87
63552;BME280;49698;48.072;7.800;2023-01-28T06:40:23;100055.19;;;0.97;77.82
63552;BME280;49698;48.072;7.800;2023-01-28T06:42:51;100077.19;;;0.98;77.53
63552;BME280;49698;48.072;7.800;2023-01-28T06:45:20;100073.50;;;0.99;77.51
63552;BME280;49698;48.072;7.800;2023-01-28T06:47:48;100081.22;;;1.01;77.81
63552;BME280;49698;48.072;7.800;2023-01-28T06:50:16;100082.66;;;1.03;77.58
63552;BME280;49698;48.072;7.800;2023-01-28T06:52:44;100081.84;;;1.03;77.70
63552;BME280;49698;48.072;7.800;2023-01-28T06:55:12;100081.63;;;1.04;77.20
63552;BME280;49698;48.072;7.800;2023-01-28T06:57:40;100096.53;;;1.05;77.34
63552;BME280;49698;48.072;7.800;2023-01-28T07:00:11;100090.22;;;1.06;77.04
63552;BME280;49698;48.072;7.800;2023-01-28T07:02:43;100085.50;;;1.08;77.04
63552;BME280;49698;48.072;7.800;2023-01-28T07:05:11;100089.81;;;1.09;77.03
63552;BME280;49698;48.072;7.800;2023-01-28T07:07:39;100088.56;;;1.12;77.07
63552;BME280;49698;48.072;7.800;2023-01-28T07:10:09;100087.56;;;1.13;76.87
63552;BME280;49698;48.072;7.800;2023-01-28T07:12:38;100090.00;;;1.14;76.61
63552;BME280;49698;48.072;7.800;2023-01-28T07:15:07;100099.56;;;1.15;76.66
63552;BME280;49698;48.072;7.800;2023-01-28T07:17:38;100094.28;;;1.15;76.27
63552;BME280;49698;48.072;7.800;2023-01-28T07:20:10;100100.19;;;1.17;76.51
63552;BME280;49698;48.072;7.800;2023-01-28T07:22:39;100105.28;;;1.19;76.40
63552;BME280;49698;48.072;7.800;2023-01-28T07:25:09;100105.91;;;1.21;76.32
63552;BME280;49698;48.072;7.800;2023-01-28T07:27:37;100107.50;;;1.22;76.38
63552;BME280;49698;48.072;7.800;2023-01-28T07:30:06;100110.97;;;1.22;76.27
63552;BME280;49698;48.072;7.800;2023-01-28T07:32:34;100110.78;;;1.24;76.24
63552;BME280;49698;48.072;7.800;2023-01-28T07:35:02;100118.53;;;1.26;76.52
63552;BME280;49698;48.072;7.800;2023-01-28T07:37:31;100121.16;;;1.26;76.47
63552;BME280;49698;48.072;7.800;2023-01-28T07:40:00;100126.47;;;1.26;76.20
63552;BME280;49698;48.072;7.800;2023-01-28T07:42:27;100129.72;;;1.28;75.92
63552;BME280;49698;48.072;7.800;2023-01-28T07:45:02;100119.13;;;1.28;76.11
63552;BME280;49698;48.072;7.800;2023-01-28T07:47:30;100120.75;;;1.29;76.01
63552;BME280;49698;48.072;7.800;2023-01-28T07:49:59;100125.25;;;1.28;76.13
63552;BME280;49698;48.072;7.800;2023-01-28T07:52:27;100124.81;;;1.31;75.92
63552;BME280;49698;48.072;7.800;2023-01-28T07:54:57;100125.66;;;1.32;76.19
63552;BME280;49698;48.072;7.800;2023-01-28T07:57:25;100126.25;;;1.34;76.18
63552;BME280;49698;48.072;7.800;2023-01-28T07:59:56;100129.13;;;1.32;76.31
63552;BME280;49698;48.072;7.800;2023-01-28T08:02:24;100126.47;;;1.32;76.23
63552;BME280;49698;48.072;7.800;2023-01-28T08:04:52;100136.25;;;1.32;76.52
63552;BME280;49698;48.072;7.800;2023-01-28T08:07:20;100138.91;;;1.32;76.27
63552;BME280;49698;48.072;7.800;2023-01-28T08:09:48;100136.03;;;1.33;76.57
63552;BME280;49698;48.072;7.800;2023-01-28T08:12:19;100130.97;;;1.32;76.53
63552;BME280;49698;48.072;7.800;2023-01-28T08:14:46;100142.78;;;1.36;76.42
63552;BME280;49698;48.072;7.800;2023-01-28T08:17:15;100142.78;;;1.36;76.30
63552;BME280;49698;48.072;7.800;2023-01-28T08:19:43;100145.19;;;1.37;76.41
63552;BME280;49698;48.072;7.800;2023-01-28T08:22:11;100144.00;;;1.40;76.54
63552;BME280;49698;48.072;7.800;2023-01-28T08:24:39;100150.69;;;1.42;76.36
63552;BME280;49698;48.072;7.800;2023-01-28T08:27:07;100149.47;;;1.45;76.06
63552;BME280;49698;48.072;7.800;2023-01-28T08:29:36;100161.50;;;1.48;75.85
63552;BME280;49698;48.072;7.800;2023-01-28T08:32:04;100154.97;;;1.50;76.01
63552;BME280;49698;48.072;7.800;2023-01-28T08:34:32;100157.84;;;1.55;75.55
63552;BME280;49698;48.072;7.800;2023-01-28T08:37:00;100151.69;;;1.61;75.72
63552;BME280;49698;48.072;7.800;2023-01-28T08:39:28;100156.19;;;1.67;75.40
63552;BME280;49698;48.072;7.800;2023-01-28T08:41:56;100158.22;;;1.72;75.41
63552;BME280;49698;48.072;7.800;2023-01-28T08:44:24;100156.78;;;1.76;75.24
63552;BME280;49698;48.072;7.800;2023-01-28T08:46:54;100156.38;;;1.79;75.18
63552;BME280;49698;48.072;7.800;2023-01-28T08:49:22;100161.88;;;1.84;74.99
63552;BME280;49698;48.072;7.800;2023-01-28T08:51:50;100156.34;;;1.86;74.69
63552;BME280;49698;48.072;7.800;2023-01-28T08:54:19;100158.59;;;1.89;74.77
63552;BME280;49698;48.072;7.800;2023-01-28T08:56:47;100157.59;;;1.90;74.86
63552;BME280;49698;48.072;7.800;2023-01-28T08:59:15;100162.44;;;1.93;74.26
63552;BME280;49698;48.072;7.800;2023-01-28T09:01:43;100165.72;;;1.95;74.77
63552;BME280;49698;48.072;7.800;2023-01-28T09:04:13;100165.91;;;2.00;74.63
63552;BME280;49698;48.072;7.800;2023-01-28T09:06:41;100162.44;;;2.06;74.23
63552;BME280;49698;48.072;7.800;2023-01-28T09:09:09;100164.69;;;2.09;73.85
63552;BME280;49698;48.072;7.800;2023-01-28T09:11:37;100161.59;;;2.12;73.69
63552;BME280;49698;48.072;7.800;2023-01-28T09:14:05;100163.41;;;2.18;73.55
63552;BME280;49698;48.072;7.800;2023-01-28T09:16:33;100171.56;;;2.24;73.44
63552;BME280;49698;48.072;7.800;2023-01-28T09:19:01;100168.28;;;2.28;73.03
63552;BME280;49698;48.072;7.800;2023-01-28T09:21:30;100165.00;;;2.33;72.87
63552;BME280;49698;48.072;7.800;2023-01-28T09:23:58;100172.34;;;2.37;72.06
63552;BME280;49698;48.072;7.800;2023-01-28T09:26:26;100176.59;;;2.38;72.35
63552;BME280;49698;48.072;7.800;2023-01-28T09:28:54;100175.81;;;2.38;72.32
63552;BME280;49698;48.072;7.800;2023-01-28T09:31:22;100177.41;;;2.39;71.84
63552;BME280;49698;48.072;7.800;2023-01-28T09:33:51;100174.34;;;2.42;71.92
63552;BME280;49698;48.072;7.800;2023-01-28T09:36:23;100179.25;;;2.45;71.75
63552;BME280;49698;48.072;7.800;2023-01-28T09:38:52;100185.75;;;2.49;71.24
63552;BME280;49698;48.072;7.800;2023-01-28T09:41:24;100190.22;;;2.55;71.16
63552;BME280;49698;48.072;7.800;2023-01-28T09:44:05;100183.91;;;2.56;71.00
63552;BME280;49698;48.072;7.800;2023-01-28T09:46:35;100188.16;;;2.57;70.90
63552;BME280;49698;48.072;7.800;2023-01-28T09:49:14;100183.44;;;2.59;70.39
63552;BME280;49698;48.072;7.800;2023-01-28T09:51:48;100190.81;;;2.64;70.72
63552;BME280;49698;48.072;7.800;2023-01-28T09:54:31;100190.75;;;2.70;70.44
63552;BME280;49698;48.072;7.800;2023-01-28T09:57:04;100191.38;;;2.73;70.13
63552;BME280;49698;48.072;7.800;2023-01-28T09:59:35;100185.03;;;2.74;70.13
63552;BME280;49698;48.072;7.800;2023-01-28T10:02:21;100195.81;;;2.79;69.70
63552;BME280;49698;48.072;7.800;2023-01-28T10:04:58;100193.94;;;2.86;69.91
63552;BME280;49698;48.072;7.800;2023-01-28T10:07:35;100192.88;;;2.93;69.67
63552;BME280;49698;48.072;7.800;2023-01-28T10:10:12;100188.75;;;3.04;69.46
63552;BME280;49698;48.072;7.800;2023-01-28T10:12:52;100189.09;;;3.14;68.93
63552;BME280;49698;48.072;7.800;2023-01-28T10:15:55;100190.44;;;3.24;68.60
63552;BME280;49698;48.072;7.800;2023-01-28T10:18:49;100189.00;;;3.28;68.06
63552;BME280;49698;48.072;7.800;2023-01-28T10:21:22;100176.25;;;3.36;67.75
63552;BME280;49698;48.072;7.800;2023-01-28T10:23:57;100176.34;;;3.48;66.99
63552;BME280;49698;48.072;7.800;2023-01-28T10:26:32;100176.09;;;3.56;66.91
63552;BME280;49698;48.072;7.800;2023-01-28T10:29:10;100176.41;;;3.66;66.53
63552;BME280;49698;48.072;7.800;2023-01-28T10:31:44;100181.25;;;3.76;65.81
63552;BME280;49698;48.072;7.800;2023-01-28T10:34:17;100176.72;;;3.77;65.51
63552;BME280;49698;48.072;7.800;2023-01-28T10:36:46;100171.72;;;3.87;64.50
63552;BME280;49698;48.072;7.800;2023-01-28T10:39:16;100170.69;;;3.88;64.25
63552;BME280;49698;48.072;7.800;2023-01-28T10:41:46;100167.28;;;4.17;63.52
63552;BME280;49698;48.072;7.800;2023-01-28T10:44:29;100165.66;;;4.53;62.08
63552;BME280;49698;48.072;7.800;2023-01-28T10:47:01;100167.25;;;5.14;60.54
63552;BME280;49698;48.072;7.800;2023-01-28T10:49:36;100158.78;;;6.06;58.16
63552;BME280;49698;48.072;7.800;2023-01-28T10:52:10;100158.69;;;6.82;56.21
63552;BME280;49698;48.072;7.800;2023-01-28T10:54:38;100152.50;;;7.27;54.64
63552;BME280;49698;48.072;7.800;2023-01-28T10:57:11;100154.22;;;7.67;53.63
63552;BME280;49698;48.072;7.800;2023-01-28T10:59:39;100148.88;;;8.05;52.01
63552;BME280;49698;48.072;7.800;2023-01-28T11:02:30;100145.38;;;8.27;51.63
63552;BME280;49698;48.072;7.800;2023-01-28T11:05:00;100143.75;;;8.26;51.10
63552;BME280;49698;48.072;7.800;2023-01-28T11:07:28;100148.19;;;8.15;51.35
63552;BME280;49698;48.072;7.800;2023-01-28T11:09:56;100150.00;;;8.09;51.53
63552;BME280;49698;48.072;7.800;2023-01-28T11:12:27;100146.19;;;8.05;51.72
63552;BME280;49698;48.072;7.800;2023-01-28T11:14:57;100146.91;;;8.01;50.87
63552;BME280;49698;48.072;7.800;2023-01-28T11:17:27;100150.75;;;7.88;50.77
63552;BME280;49698;48.072;7.800;2023-01-28T11:19:58;100143.31;;;7.73;50.58
63552;BME280;49698;48.072;7.800;2023-01-28T11:22:31;100146.78;;;7.74;50.70
63552;BME280;49698;48.072;7.800;2023-01-28T11:25:02;100152.13;;;7.91;50.88
63552;BME280;49698;48.072;7.800;2023-01-28T11:27:32;100146.78;;;8.13;50.13
63552;BME280;49698;48.072;7.800;2023-01-28T11:30:01;100135.66;;;8.21;49.93
63552;BME280;49698;48.072;7.800;2023-01-28T11:32:30;100136.16;;;8.18;50.22
63552;BME280;49698;48.072;7.800;2023-01-28T11:34:59;100137.44;;;7.93;50.75
63552;BME280;49698;48.072;7.800;2023-01-28T11:37:28;100138.63;;;7.47;51.58
63552;BME280;49698;48.072;7.800;2023-01-28T11:40:17;100138.53;;;6.91;52.99
63552;BME280;49698;48.072;7.800;2023-01-28T11:42:49;100139.19;;;6.41;53.81
63552;BME280;49698;48.072;7.800;2023-01-28T11:45:19;100137.88;;;6.03;54.66
63552;BME280;49698;48.072;7.800;2023-01-28T11:48:02;100132.91;;;5.72;55.42
63552;BME280;49698;48.072;7.800;2023-01-28T11:50:40;100129.31;;;5.54;55.78
63552;BME280;49698;48.072;7.800;2023-01-28T11:53:32;100136.59;;;5.35;56.18
63552;BME280;49698;48.072;7.800;2023-01-28T11:56:21;100130.31;;;5.18;57.02
63552;BME280;49698;48.072;7.800;2023-01-28T11:59:00;100125.47;;;5.15;57.31
63552;BME280;49698;48.072;7.800;2023-01-28T12:01:38;100129.25;;;5.07;57.31
63552;BME280;49698;48.072;7.800;2023-01-28T12:04:21;100129.44;;;4.94;57.60
63552;BME280;49698;48.072;7.800;2023-01-28T12:07:08;100126.31;;;4.85;57.92
63552;BME280;49698;48.072;7.800;2023-01-28T12:09:46;100124.19;;;4.76;58.13
63552;BME280;49698;48.072;7.800;2023-01-28T12:12:39;100131.00;;;4.72;58.06
63552;BME280;49698;48.072;7.800;2023-01-28T12:15:25;100134.72;;;4.71;58.27
63552;BME280;49698;48.072;7.800;2023-01-28T12:18:08;100133.66;;;4.72;58.36
63552;BME280;49698;48.072;7.800;2023-01-28T12:20:46;100133.97;;;4.63;58.06
63552;BME280;49698;48.072;7.800;2023-01-28T12:23:29;100133.41;;;4.61;57.96
63552;BME280;49698;48.072;7.800;2023-01-28T12:26:06;100138.94;;;4.60;58.03
63552;BME280;49698;48.072;7.800;2023-01-28T12:28:51;100137.41;;;4.52;57.99
63552;BME280;49698;48.072;7.800;2023-01-28T12:31:39;100139.31;;;4.45;58.12
63552;BME280;49698;48.072;7.800;2023-01-28T12:34:26;100139.63;;;4.37;58.37
63552;BME280;49698;48.072;7.800;2023-01-28T12:37:02;100139.38;;;4.27;58.60
63552;BME280;49698;48.072;7.800;2023-01-28T12:39:44;100146.75;;;4.25;58.66
63552;BME280;49698;48.072;7.800;2023-01-28T12:42:29;100146.00;;;4.17;59.24
63552;BME280;49698;48.072;7.800;2023-01-28T12:45:10;100150.75;;;4.15;59.54
63552;BME280;49698;48.072;7.800;2023-01-28T12:47:48;100153.84;;;4.12;60.02
63552;BME280;49698;48.072;7.800;2023-01-28T12:50:20;100138.69;;;4.13;59.83
63552;BME280;49698;48.072;7.800;2023-01-28T12:52:53;100152.25;;;4.11;60.00
63552;BME280;49698;48.072;7.800;2023-01-28T12:55:34;100149.34;;;4.13;60.31
63552;BME280;49698;48.072;7.800;2023-01-28T12:58:04;100148.97;;;4.09;60.39
63552;BME280;49698;48.072;7.800;2023-01-28T13:00:37;100152.91;;;4.07;60.52
63552;BME280;49698;48.072;7.800;2023-01-28T13:03:14;100145.72;;;4.07;60.67
63552;BME280;49698;48.072;7.800;2023-01-28T13:05:48;100144.94;;;4.07;60.63
63552;BME280;49698;48.072;7.800;2023-01-28T13:08:22;100153.91;;;4.06;60.50
63552;BME280;49698;48.072;7.800;2023-01-28T13:10:50;100152.53;;;4.03;60.75
63552;BME280;49698;48.072;7.800;2023-01-28T13:13:26;100152.53;;;4.03;60.80
63552;BME280;49698;48.072;7.800;2023-01-28T13:15:55;100147.34;;;4.08;60.88
63552;BME280;49698;48.072;7.800;2023-01-28T13:18:33;100151.81;;;4.14;60.83
63552;BME280;49698;48.072;7.800;2023-01-28T13:21:13;100154.91;;;4.11;60.84
63552;BME280;49698;48.072;7.800;2023-01-28T13:23:43;100160.00;;;4.13;60.73
63552;BME280;49698;48.072;7.800;2023-01-28T13:26:28;100154.28;;;4.09;61.08
63552;BME280;49698;48.072;7.800;2023-01-28T13:29:16;100154.28;;;4.09;60.97
63552;BME280;49698;48.072;7.800;2023-01-28T13:31:46;100159.91;;;4.01;60.94
63552;BME280;49698;48.072;7.800;2023-01-28T13:34:30;100154.88;;;3.93;60.88
63552;BME280;49698;48.072;7.800;2023-01-28T13:37:02;100159.03;;;3.89;61.26
63552;BME280;49698;48.072;7.800;2023-01-28T13:39:33;100151.28;;;3.87;61.61